createdAt,value
2018-12-25T00:02:11.952Z,99.90
2018-12-25T00:04:41.117Z,99.90
2018-12-25T00:07:10.316Z,99.90
2018-12-25T00:09:39.478Z,99.90
2018-12-25T00:12:08.784Z,99.90
2018-12-25T00:14:38.059Z,99.90
2018-12-25T00:17:07.292Z,99.90
2018-12-25T00:19:36.523Z,99.90
2018-12-25T00:22:05.701Z,99.90
2018-12-25T00:24:34.876Z,99.90
2018-12-25T00:27:04.111Z,99.90
2018-12-25T00:29:33.336Z,99.90
2018-12-25T00:32:02.571Z,99.90
2018-12-25T00:34:31.740Z,99.90
2018-12-25T00:37:01.014Z,99.90
2018-12-25T00:39:30.252Z,99.90
2018-12-25T00:41:59.426Z,99.90
2018-12-25T00:44:28.605Z,99.90
2018-12-25T00:46:57.831Z,99.90
2018-12-25T00:49:27.065Z,99.90
2018-12-25T00:51:56.405Z,99.90
2018-12-25T00:54:25.542Z,99.90
2018-12-25T00:56:54.720Z,99.90
2018-12-25T00:59:23.991Z,99.90
2018-12-25T01:01:53.237Z,99.90
2018-12-25T01:04:22.635Z,99.90
2018-12-25T01:06:51.855Z,99.90
2018-12-25T01:09:21.096Z,99.90
2018-12-25T01:11:50.264Z,99.90
2018-12-25T01:14:19.535Z,99.90
2018-12-25T01:16:48.854Z,99.90
2018-12-25T01:19:23.330Z,99.90
2018-12-25T01:21:48.921Z,99.90
2018-12-25T01:24:18.144Z,99.90
2018-12-25T01:26:47.507Z,99.90
2018-12-25T01:29:16.683Z,99.90
2018-12-25T01:31:45.940Z,99.90
2018-12-25T01:34:15.104Z,99.90
2018-12-25T01:36:44.294Z,99.90
2018-12-25T01:39:13.452Z,99.90
2018-12-25T01:41:42.621Z,99.90
2018-12-25T01:44:11.829Z,99.90
2018-12-25T01:46:41.063Z,99.90
2018-12-25T01:49:10.231Z,99.90
2018-12-25T01:51:39.665Z,99.90
2018-12-25T01:54:08.861Z,99.90
2018-12-25T01:56:38.059Z,99.90
2018-12-25T01:59:07.316Z,99.90
2018-12-25T02:01:36.459Z,99.90
2018-12-25T02:04:05.631Z,99.90
2018-12-25T02:06:35.003Z,99.90
2018-12-25T02:09:06.269Z,99.90
2018-12-25T02:11:35.436Z,99.90
2018-12-25T02:14:04.705Z,99.90
2018-12-25T02:16:33.931Z,99.90
2018-12-25T02:19:03.089Z,99.90
2018-12-25T02:21:32.361Z,99.90
2018-12-25T02:24:01.599Z,99.90
2018-12-25T02:26:30.768Z,99.90
2018-12-25T02:28:59.969Z,99.90
2018-12-25T02:31:29.129Z,99.90
2018-12-25T02:33:58.367Z,99.90
2018-12-25T02:36:27.566Z,99.90
2018-12-25T02:38:56.737Z,99.90
2018-12-25T02:41:26.004Z,99.90
2018-12-25T02:43:55.415Z,99.90
2018-12-25T02:46:24.571Z,99.90
2018-12-25T02:48:53.892Z,99.90
2018-12-25T02:51:23.091Z,99.90
2018-12-25T02:53:52.256Z,99.90
2018-12-25T02:56:21.524Z,99.90
2018-12-25T02:58:50.804Z,99.90
2018-12-25T03:01:20.048Z,99.90
2018-12-25T03:03:49.359Z,99.90
2018-12-25T03:06:18.930Z,99.90
2018-12-25T03:08:48.161Z,99.90
2018-12-25T03:11:17.388Z,99.90
2018-12-25T03:13:46.799Z,99.90
2018-12-25T03:16:15.966Z,99.90
2018-12-25T03:18:45.203Z,99.90
2018-12-25T03:21:14.463Z,99.90
2018-12-25T03:23:43.694Z,99.90
2018-12-25T03:26:13.005Z,99.90
2018-12-25T03:28:42.209Z,99.90
2018-12-25T03:31:11.366Z,99.90
2018-12-25T03:33:40.665Z,99.90
2018-12-25T03:36:09.933Z,99.90
2018-12-25T03:38:39.074Z,99.90
2018-12-25T03:41:08.316Z,99.90
2018-12-25T03:43:37.515Z,99.90
2018-12-25T03:46:06.836Z,99.90
2018-12-25T03:48:36.076Z,99.90
2018-12-25T03:51:05.362Z,99.90
2018-12-25T03:53:34.604Z,99.90
2018-12-25T03:56:03.822Z,99.90
2018-12-25T03:58:33.109Z,99.90
2018-12-25T04:01:02.285Z,99.90
2018-12-25T04:03:31.700Z,99.90
2018-12-25T04:06:00.923Z,99.90
2018-12-25T04:08:30.100Z,99.90
2018-12-25T04:10:59.343Z,99.90
2018-12-25T04:13:28.548Z,99.90
2018-12-25T04:15:57.779Z,99.90
2018-12-25T04:18:27.049Z,99.90
2018-12-25T04:20:56.242Z,99.90
2018-12-25T04:23:25.510Z,99.90
2018-12-25T04:25:54.722Z,99.90
2018-12-25T04:28:23.900Z,99.90
2018-12-25T04:30:53.059Z,99.90
2018-12-25T04:33:22.363Z,99.90
2018-12-25T04:35:51.556Z,99.90
2018-12-25T04:38:20.718Z,99.90
2018-12-25T04:40:49.884Z,99.90
2018-12-25T04:43:19.128Z,99.90
2018-12-25T04:45:48.290Z,99.90
2018-12-25T04:48:17.462Z,99.90
2018-12-25T04:50:46.665Z,99.90
2018-12-25T04:53:15.838Z,99.90
2018-12-25T04:55:44.991Z,99.90
2018-12-25T04:58:14.245Z,99.90
2018-12-25T05:00:43.549Z,99.90
2018-12-25T05:03:12.720Z,99.90
2018-12-25T05:05:41.915Z,99.90
2018-12-25T05:08:12.358Z,99.90
2018-12-25T05:10:41.516Z,99.90
2018-12-25T05:13:10.738Z,99.90
2018-12-25T05:15:39.940Z,99.90
2018-12-25T05:18:09.166Z,99.90
2018-12-25T05:20:38.373Z,99.90
2018-12-25T05:23:07.530Z,99.90
2018-12-25T05:25:36.772Z,99.90
2018-12-25T05:28:05.952Z,99.90
2018-12-25T05:30:35.180Z,99.90
2018-12-25T05:33:04.351Z,99.90
2018-12-25T05:35:33.728Z,99.90
2018-12-25T05:38:02.943Z,99.90
2018-12-25T05:40:32.323Z,99.90
2018-12-25T05:43:01.516Z,99.90
2018-12-25T05:45:30.755Z,99.90
2018-12-25T05:48:00.055Z,99.90
2018-12-25T05:50:30.876Z,99.90
2018-12-25T05:53:00.083Z,99.90
2018-12-25T05:55:29.305Z,99.90
2018-12-25T05:57:58.696Z,99.90
2018-12-25T06:00:29.968Z,99.90
2018-12-25T06:02:59.130Z,99.90
2018-12-25T06:05:28.307Z,99.90
2018-12-25T06:07:57.513Z,99.90
2018-12-25T06:10:26.666Z,99.90
2018-12-25T06:12:55.846Z,99.90
2018-12-25T06:15:25.100Z,99.90
2018-12-25T06:17:54.312Z,99.90
2018-12-25T06:20:23.528Z,99.90
2018-12-25T06:22:53.112Z,99.90
2018-12-25T06:25:22.278Z,99.90
2018-12-25T06:27:54.230Z,99.90
2018-12-25T06:30:23.390Z,99.90
2018-12-25T06:32:52.642Z,99.90
2018-12-25T06:35:21.913Z,99.90
2018-12-25T06:37:51.073Z,99.90
2018-12-25T06:40:20.299Z,99.90
2018-12-25T06:42:49.494Z,99.90
2018-12-25T06:45:18.642Z,99.90
2018-12-25T06:47:47.884Z,99.90
2018-12-25T06:50:17.098Z,99.90
2018-12-25T06:52:46.276Z,99.90
2018-12-25T06:55:15.476Z,99.90
2018-12-25T06:57:44.748Z,99.90
2018-12-25T07:00:13.914Z,99.90
2018-12-25T07:02:43.055Z,99.90
2018-12-25T07:05:12.251Z,99.90
2018-12-25T07:07:41.427Z,99.90
2018-12-25T07:10:10.668Z,99.90
2018-12-25T07:12:39.879Z,99.90
2018-12-25T07:15:09.109Z,99.90
2018-12-25T07:17:39.779Z,99.90
2018-12-25T07:20:09.038Z,99.90
2018-12-25T07:22:38.196Z,99.90
2018-12-25T07:25:07.437Z,99.90
2018-12-25T07:27:36.612Z,99.90
2018-12-25T07:30:06.272Z,99.90
2018-12-25T07:32:35.723Z,99.90
2018-12-25T07:35:04.936Z,99.90
2018-12-25T07:37:34.376Z,99.90
2018-12-25T07:40:03.606Z,99.90
2018-12-25T07:42:32.873Z,99.90
2018-12-25T07:45:02.041Z,99.90
2018-12-25T07:47:32.739Z,99.90
2018-12-25T07:50:01.938Z,99.90
2018-12-25T07:52:31.120Z,99.90
2018-12-25T07:55:00.272Z,99.90
2018-12-25T07:57:29.558Z,99.90
2018-12-25T07:59:58.849Z,99.90
2018-12-25T08:02:28.022Z,99.90
2018-12-25T08:04:57.275Z,99.90
2018-12-25T08:07:26.802Z,99.90
2018-12-25T08:09:55.966Z,99.90
2018-12-25T08:12:25.197Z,99.90
2018-12-25T08:14:54.432Z,99.90
2018-12-25T08:17:25.662Z,99.90
2018-12-25T08:19:54.852Z,99.90
2018-12-25T08:22:24.014Z,99.90
2018-12-25T08:24:53.611Z,99.90
2018-12-25T08:27:22.834Z,99.90
2018-12-25T08:29:51.996Z,99.90
2018-12-25T08:32:24.370Z,99.90
2018-12-25T08:34:53.691Z,99.90
2018-12-25T08:37:22.920Z,99.90
2018-12-25T08:39:52.121Z,99.90
2018-12-25T08:42:21.347Z,99.90
2018-12-25T08:44:51.460Z,99.90
2018-12-25T08:47:20.623Z,99.90
2018-12-25T08:49:50.327Z,99.90
2018-12-25T08:52:19.788Z,99.90
2018-12-25T08:54:48.969Z,99.90
2018-12-25T08:57:18.403Z,99.90
2018-12-25T08:59:47.724Z,99.90
2018-12-25T09:02:16.958Z,99.90
2018-12-25T09:04:48.932Z,99.90
2018-12-25T09:10:07.477Z,99.90
2018-12-25T09:12:36.722Z,99.90
2018-12-25T09:15:06.432Z,99.90
2018-12-25T09:17:35.709Z,99.90
2018-12-25T09:20:05.508Z,99.90
2018-12-25T09:22:34.733Z,99.90
2018-12-25T09:25:04.185Z,99.90
2018-12-25T09:27:33.442Z,99.90
2018-12-25T09:30:03.138Z,99.90
2018-12-25T09:32:33.545Z,99.90
2018-12-25T09:35:04.080Z,99.90
2018-12-25T09:37:33.237Z,99.90
2018-12-25T09:40:02.428Z,99.90
2018-12-25T09:42:31.670Z,99.90
2018-12-25T09:45:00.843Z,99.90
2018-12-25T09:47:30.051Z,99.90
2018-12-25T09:49:59.215Z,99.90
2018-12-25T09:52:28.409Z,99.90
2018-12-25T09:54:57.696Z,99.90
2018-12-25T09:57:26.842Z,99.90
2018-12-25T09:59:56.008Z,99.90
2018-12-25T10:02:25.221Z,99.90
2018-12-25T10:04:56.546Z,99.90
2018-12-25T10:07:25.374Z,99.90
2018-12-25T10:09:54.715Z,99.90
2018-12-25T10:12:24.036Z,99.90
2018-12-25T10:14:53.265Z,99.90
2018-12-25T10:17:22.466Z,99.90
2018-12-25T10:19:51.741Z,99.90
2018-12-25T10:22:20.967Z,99.90
2018-12-25T10:24:51.412Z,99.90
2018-12-25T10:27:20.879Z,99.90
2018-12-25T10:29:50.446Z,99.90
2018-12-25T10:32:19.771Z,99.90
2018-12-25T10:34:48.943Z,99.90
2018-12-25T10:37:37.379Z,99.90
2018-12-25T10:40:07.183Z,99.90
2018-12-25T10:42:36.422Z,99.90
2018-12-25T10:45:05.811Z,99.90
2018-12-25T10:47:34.971Z,99.90
2018-12-25T10:50:04.290Z,99.90
2018-12-25T10:52:33.534Z,99.90
2018-12-25T10:55:02.889Z,99.90
2018-12-25T10:57:32.219Z,99.90
2018-12-25T11:00:01.462Z,99.90
2018-12-25T11:02:30.792Z,99.90
2018-12-25T11:05:00.077Z,99.90
2018-12-25T11:07:29.420Z,99.90
2018-12-25T11:09:58.572Z,99.60
2018-12-25T11:12:27.771Z,99.50
2018-12-25T11:14:56.961Z,99.90
2018-12-25T11:17:26.124Z,99.90
2018-12-25T11:19:55.312Z,99.90
2018-12-25T11:22:24.622Z,99.90
2018-12-25T11:24:53.940Z,99.60
2018-12-25T11:27:23.121Z,98.20
2018-12-25T11:29:52.454Z,98.10
2018-12-25T11:32:21.732Z,97.90
2018-12-25T11:34:50.997Z,98.30
2018-12-25T11:37:20.217Z,97.60
2018-12-25T11:39:49.782Z,97.40
2018-12-25T11:42:21.269Z,96.70
2018-12-25T11:44:50.502Z,95.60
2018-12-25T11:47:19.747Z,95.80
2018-12-25T11:49:49.063Z,97.10
2018-12-25T11:52:18.243Z,95.00
2018-12-25T11:54:47.543Z,97.50
2018-12-25T11:57:17.135Z,96.70
2018-12-25T11:59:46.340Z,99.60
2018-12-25T12:02:17.204Z,98.40
2018-12-25T12:04:46.715Z,97.60
2018-12-25T12:07:15.996Z,98.30
2018-12-25T12:09:45.298Z,98.50
2018-12-25T12:12:14.498Z,98.00
2018-12-25T12:14:43.787Z,97.30
2018-12-25T12:17:12.959Z,96.60
2018-12-25T12:19:42.120Z,95.60
2018-12-25T12:22:11.297Z,95.90
2018-12-25T12:24:40.525Z,96.10
2018-12-25T12:27:09.677Z,97.60
2018-12-25T12:29:39.039Z,97.10
2018-12-25T12:32:08.231Z,97.90
2018-12-25T12:34:37.383Z,94.70
2018-12-25T12:37:06.646Z,93.70
2018-12-25T12:39:35.834Z,91.30
2018-12-25T12:42:05.066Z,92.30
2018-12-25T12:44:34.338Z,92.90
2018-12-25T12:47:03.871Z,92.80
2018-12-25T12:49:33.101Z,91.60
2018-12-25T12:52:02.302Z,92.10
2018-12-25T12:54:31.544Z,92.40
2018-12-25T12:57:00.743Z,94.60
2018-12-25T12:59:29.934Z,91.60
2018-12-25T13:01:59.247Z,89.60
2018-12-25T13:04:28.725Z,89.10
2018-12-25T13:06:57.917Z,89.00
2018-12-25T13:09:27.081Z,89.90
2018-12-25T13:11:56.451Z,89.80
2018-12-25T13:14:25.717Z,89.30
2018-12-25T13:16:54.953Z,90.60
2018-12-25T13:19:24.194Z,88.40
2018-12-25T13:21:53.436Z,87.30
2018-12-25T13:24:24.548Z,90.00
2018-12-25T13:26:53.676Z,88.00
2018-12-25T13:29:22.885Z,87.50
2018-12-25T13:31:52.313Z,87.80
2018-12-25T13:34:21.472Z,87.90
2018-12-25T13:36:50.666Z,87.50
2018-12-25T13:39:19.947Z,88.50
2018-12-25T13:41:49.481Z,87.50
2018-12-25T13:44:18.723Z,88.50
2018-12-25T13:46:51.675Z,88.90
2018-12-25T13:49:18.844Z,88.00
2018-12-25T13:51:48.035Z,89.30
2018-12-25T13:54:17.382Z,89.80
2018-12-25T13:56:46.582Z,89.30
2018-12-25T13:59:15.851Z,89.30
2018-12-25T14:01:45.085Z,89.10
2018-12-25T14:04:14.335Z,88.90
2018-12-25T14:06:43.703Z,89.60
2018-12-25T14:09:12.871Z,90.00
2018-12-25T14:11:42.059Z,87.40
2018-12-25T14:14:11.271Z,89.40
2018-12-25T14:16:40.507Z,85.10
2018-12-25T14:19:09.684Z,85.40
2018-12-25T14:21:38.892Z,85.30
2018-12-25T14:24:08.062Z,84.40
2018-12-25T14:26:37.307Z,87.10
2018-12-25T14:29:06.524Z,85.90
2018-12-25T14:31:35.714Z,85.20
2018-12-25T14:34:04.919Z,86.50
2018-12-25T14:36:34.182Z,88.20
2018-12-25T14:39:04.807Z,87.30
2018-12-25T14:41:34.055Z,89.30
2018-12-25T14:44:05.388Z,89.70
2018-12-25T14:46:34.451Z,89.20
2018-12-25T14:49:03.634Z,90.20
2018-12-25T14:51:32.921Z,90.80
2018-12-25T14:54:02.268Z,91.20
2018-12-25T14:56:31.429Z,90.50
2018-12-25T14:59:00.670Z,90.00
2018-12-25T15:01:29.917Z,90.90
2018-12-25T15:03:59.080Z,90.60
2018-12-25T15:06:28.283Z,90.30
2018-12-25T15:08:57.619Z,92.20
2018-12-25T15:11:26.795Z,92.50
2018-12-25T15:13:55.989Z,92.90
2018-12-25T15:16:28.373Z,93.80
2018-12-25T15:18:57.599Z,94.50
2018-12-25T15:21:26.874Z,95.30
2018-12-25T15:23:56.258Z,95.80
2018-12-25T15:26:25.594Z,92.70
2018-12-25T15:28:54.785Z,94.80
2018-12-25T15:31:26.361Z,95.30
2018-12-25T15:33:55.529Z,93.90
2018-12-25T15:36:24.915Z,94.30
2018-12-25T15:38:54.199Z,95.30
2018-12-25T15:41:23.648Z,97.50
2018-12-25T15:43:52.975Z,96.30
2018-12-25T15:46:22.298Z,96.80
2018-12-25T15:48:51.476Z,96.10
2018-12-25T15:51:20.750Z,97.30
2018-12-25T15:53:50.525Z,99.90
2018-12-25T15:56:20.091Z,99.90
2018-12-25T15:58:49.424Z,99.90
2018-12-25T16:01:18.638Z,99.90
2018-12-25T16:03:47.898Z,99.90
2018-12-25T16:06:17.320Z,99.90
2018-12-25T16:08:46.595Z,99.90
2018-12-25T16:11:16.764Z,99.90
2018-12-25T16:13:46.391Z,99.90
2018-12-25T16:16:15.911Z,99.90
2018-12-25T16:18:45.105Z,99.90
2018-12-25T16:21:14.379Z,99.90
2018-12-25T16:23:45.438Z,99.90
2018-12-25T16:26:14.605Z,99.90
2018-12-25T16:28:44.345Z,99.90
2018-12-25T16:31:13.593Z,99.90
2018-12-25T16:33:42.767Z,99.90
2018-12-25T16:36:11.963Z,99.90
2018-12-25T16:38:41.152Z,99.90
2018-12-25T16:41:10.333Z,99.90
2018-12-25T16:43:39.618Z,99.90
2018-12-25T16:46:09.099Z,99.90
2018-12-25T16:48:38.369Z,99.90
2018-12-25T16:51:07.553Z,99.90
2018-12-25T16:53:36.796Z,99.90
2018-12-25T16:56:08.941Z,99.90
2018-12-25T16:58:38.216Z,99.90
2018-12-25T17:01:07.469Z,99.90
2018-12-25T17:03:36.825Z,99.90
2018-12-25T17:06:06.015Z,99.90
2018-12-25T17:08:35.175Z,99.90
2018-12-25T17:11:04.431Z,99.90
2018-12-25T17:13:34.952Z,99.90
2018-12-25T17:16:04.456Z,99.90
2018-12-25T17:18:33.618Z,99.90
2018-12-25T17:21:02.979Z,99.90
2018-12-25T17:23:32.211Z,99.90
2018-12-25T17:26:01.537Z,99.90
2018-12-25T17:28:30.735Z,99.90
2018-12-25T17:30:59.987Z,99.90
2018-12-25T17:33:29.153Z,99.90
2018-12-25T17:35:58.347Z,99.90
2018-12-25T17:38:27.870Z,99.90
2018-12-25T17:40:57.199Z,99.90
2018-12-25T17:43:26.409Z,99.90
2018-12-25T17:45:55.572Z,99.90
2018-12-25T17:48:24.830Z,99.90
2018-12-25T17:50:54.086Z,99.90
2018-12-25T17:53:23.277Z,99.90
2018-12-25T17:55:52.435Z,99.90
2018-12-25T17:58:21.840Z,99.90
2018-12-25T18:00:51.006Z,99.90
2018-12-25T18:03:20.180Z,99.90
2018-12-25T18:05:49.376Z,99.90
2018-12-25T18:08:18.527Z,99.90
2018-12-25T18:10:47.875Z,99.90
2018-12-25T18:13:17.421Z,99.90
2018-12-25T18:15:46.660Z,99.90
2018-12-25T18:18:15.990Z,99.90
2018-12-25T18:20:45.188Z,99.90
2018-12-25T18:23:14.343Z,99.90
2018-12-25T18:25:43.528Z,99.90
2018-12-25T18:28:12.793Z,99.90
2018-12-25T18:30:41.950Z,99.90
2018-12-25T18:33:11.181Z,99.90
2018-12-25T18:35:40.439Z,99.90
2018-12-25T18:38:11.444Z,99.90
2018-12-25T18:40:40.664Z,99.90
2018-12-25T18:43:09.875Z,99.90
2018-12-25T18:45:41.428Z,99.90
2018-12-25T18:48:10.739Z,99.90
2018-12-25T18:50:40.081Z,99.90
2018-12-25T18:53:09.334Z,99.90
2018-12-25T18:55:40.238Z,99.90
2018-12-25T18:58:09.509Z,99.90
2018-12-25T19:00:41.636Z,99.90
2018-12-25T19:03:10.884Z,99.90
2018-12-25T19:05:40.180Z,99.90
2018-12-25T19:08:09.442Z,99.90
2018-12-25T19:10:38.692Z,99.90
2018-12-25T19:13:07.927Z,99.90
2018-12-25T19:15:37.484Z,99.90
2018-12-25T19:18:09.711Z,99.90
2018-12-25T19:20:38.941Z,99.90
2018-12-25T19:23:08.202Z,99.90
2018-12-25T19:25:37.447Z,99.90
2018-12-25T19:28:06.710Z,99.90
2018-12-25T19:30:38.076Z,99.90
2018-12-25T19:33:07.543Z,99.90
2018-12-25T19:35:36.995Z,99.90
2018-12-25T19:38:06.160Z,99.90
2018-12-25T19:40:35.613Z,99.90
2018-12-25T19:43:04.870Z,99.90
2018-12-25T19:45:34.716Z,99.90
2018-12-25T19:48:04.017Z,99.90
2018-12-25T19:50:33.506Z,99.90
2018-12-25T19:53:02.759Z,99.90
2018-12-25T19:55:32.026Z,99.90
2018-12-25T19:58:01.302Z,99.90
2018-12-25T20:00:30.475Z,99.90
2018-12-25T20:03:05.671Z,99.90
2018-12-25T20:06:19.029Z,99.90
2018-12-25T20:09:35.025Z,99.90
2018-12-25T20:12:34.503Z,99.90
2018-12-25T20:15:40.962Z,99.90
2018-12-25T20:19:16.779Z,99.90
2018-12-25T20:22:26.316Z,99.90
2018-12-25T20:25:42.889Z,99.90
2018-12-25T20:28:56.503Z,99.90
2018-12-25T20:32:04.552Z,99.90
2018-12-25T20:35:09.463Z,99.90
2018-12-25T20:38:14.254Z,99.90
2018-12-25T20:41:25.320Z,99.90
2018-12-25T20:44:34.082Z,99.90
2018-12-25T20:47:37.121Z,99.90
2018-12-25T20:50:42.181Z,99.90
2018-12-25T20:54:06.314Z,99.90
2018-12-25T20:57:17.197Z,99.90
2018-12-25T21:00:23.337Z,99.90
2018-12-25T21:03:28.395Z,99.90
2018-12-25T21:06:47.868Z,99.90
2018-12-25T21:09:54.085Z,99.90
2018-12-25T21:13:03.698Z,99.90
2018-12-25T21:16:13.041Z,99.90
2018-12-25T21:19:28.318Z,99.90
2018-12-25T21:22:44.695Z,99.90
2018-12-25T21:25:51.048Z,99.90
2018-12-25T21:28:18.810Z,99.90
2018-12-25T21:40:32.269Z,99.90
2018-12-25T21:43:01.585Z,99.90
2018-12-25T21:45:30.955Z,99.90
2018-12-25T21:48:01.022Z,99.90
2018-12-25T21:50:30.503Z,99.90
2018-12-25T21:52:59.784Z,99.90
2018-12-25T21:55:30.788Z,99.90
2018-12-25T21:58:00.656Z,99.90
2018-12-25T22:00:32.572Z,99.90
2018-12-25T22:03:02.462Z,99.90
2018-12-25T22:05:34.628Z,99.90
2018-12-25T22:08:04.034Z,99.90
2018-12-25T22:10:33.350Z,99.90
2018-12-25T22:13:03.066Z,99.90
2018-12-25T22:15:32.334Z,99.90
2018-12-25T22:18:01.706Z,99.90
2018-12-25T22:20:34.024Z,99.90
2018-12-25T22:23:03.467Z,99.90
2018-12-25T22:25:32.869Z,99.90
2018-12-25T22:28:02.226Z,99.90
2018-12-25T22:30:31.526Z,99.90
2018-12-25T22:33:00.863Z,99.90
2018-12-25T22:35:30.217Z,99.90
2018-12-25T22:37:59.598Z,99.90
2018-12-25T22:40:28.970Z,99.90
2018-12-25T22:42:58.242Z,99.90
2018-12-25T22:45:27.712Z,99.90
2018-12-25T22:48:00.358Z,99.90
2018-12-25T22:50:30.197Z,99.90
2018-12-25T22:52:59.770Z,99.90
2018-12-25T22:55:35.861Z,99.90
2018-12-25T22:58:02.530Z,99.90
2018-12-25T23:00:32.340Z,99.90
2018-12-25T23:03:01.716Z,99.90
2018-12-25T23:05:31.070Z,99.90
2018-12-25T23:08:00.377Z,99.90
2018-12-25T23:10:30.470Z,99.90
2018-12-25T23:12:59.862Z,99.90
2018-12-25T23:15:29.130Z,99.90
2018-12-25T23:17:59.532Z,99.90
2018-12-25T23:20:29.133Z,99.90
2018-12-25T23:22:58.769Z,99.90
2018-12-25T23:25:28.094Z,99.90
2018-12-25T23:27:57.450Z,99.90
2018-12-25T23:30:27.841Z,99.90
2018-12-25T23:32:57.223Z,99.90
2018-12-25T23:35:26.554Z,99.90
2018-12-25T23:37:55.956Z,99.90
2018-12-25T23:40:25.603Z,99.90
2018-12-25T23:42:54.984Z,99.90
2018-12-25T23:45:24.333Z,99.90
2018-12-25T23:47:53.651Z,99.90
2018-12-25T23:50:22.931Z,99.90
2018-12-25T23:52:52.328Z,99.90
2018-12-25T23:55:21.636Z,99.90
2018-12-25T23:57:50.983Z,99.90
